createdAt,value
2022-09-02T00:00:25.515Z,101454.47
2022-09-02T00:02:55.418Z,101465.09
2022-09-02T00:05:25.173Z,101469.81
2022-09-02T00:07:55.699Z,101470.19
2022-09-02T00:10:30.066Z,101457.84
2022-09-02T00:13:02.146Z,101451.28
2022-09-02T00:15:35.239Z,101450.31
2022-09-02T00:18:14.228Z,101443.41
2022-09-02T00:20:48.889Z,101436.00
2022-09-02T00:23:18.648Z,101438.50
2022-09-02T00:25:50.376Z,101432.97
2022-09-02T00:28:23.154Z,101436.53
2022-09-02T00:30:54.760Z,101431.72
2022-09-02T00:33:24.868Z,101428.94
2022-09-02T00:35:54.680Z,101420.41
2022-09-02T00:38:24.027Z,101412.44
2022-09-02T00:40:55.144Z,101426.06
2022-09-02T00:43:38.982Z,101403.00
2022-09-02T00:46:12.430Z,101424.44
2022-09-02T00:48:48.446Z,101407.34
2022-09-02T00:51:21.900Z,101412.66
2022-09-02T00:53:52.372Z,101410.31
2022-09-02T00:56:32.495Z,101392.47
2022-09-02T00:59:04.888Z,101405.13
2022-09-02T01:01:34.590Z,101396.38
2022-09-02T01:04:06.293Z,101389.00
2022-09-02T01:06:35.948Z,101391.88
2022-09-02T01:09:12.047Z,101399.84
2022-09-02T01:11:48.072Z,101373.88
2022-09-02T01:14:18.632Z,101379.63
2022-09-02T01:16:52.582Z,101370.28
2022-09-02T01:19:25.920Z,101379.06
2022-09-02T01:21:59.684Z,101382.75
2022-09-02T01:24:33.085Z,101353.09
2022-09-02T01:27:02.462Z,101373.97
2022-09-02T01:29:32.002Z,101366.81
2022-09-02T01:32:02.627Z,101363.69
2022-09-02T01:34:32.038Z,101356.53
2022-09-02T01:37:03.346Z,101325.44
2022-09-02T01:39:32.626Z,101354.38
2022-09-02T01:42:03.188Z,101355.44
2022-09-02T01:44:39.045Z,101346.56
2022-09-02T01:47:08.266Z,101352.94
2022-09-02T01:49:40.751Z,101346.09
2022-09-02T01:52:11.837Z,101338.16
2022-09-02T01:54:41.547Z,101341.84
2022-09-02T01:57:11.197Z,101343.31
2022-09-02T01:59:43.881Z,101343.59
2022-09-02T02:02:13.228Z,101342.31
2022-09-02T02:04:46.208Z,101333.34
2022-09-02T02:07:22.621Z,101330.13
2022-09-02T02:09:53.551Z,101338.22
2022-09-02T02:12:23.638Z,101321.69
2022-09-02T02:14:53.505Z,101333.25
2022-09-02T02:17:24.549Z,101332.44
2022-09-02T02:19:53.672Z,101327.22
2022-09-02T02:22:24.395Z,101329.19
2022-09-02T02:24:53.771Z,101309.25
2022-09-02T02:27:22.980Z,101312.38
2022-09-02T02:29:52.462Z,101314.44
2022-09-02T02:32:26.182Z,101318.81
2022-09-02T02:34:56.392Z,101305.47
2022-09-02T02:37:27.739Z,101317.22
2022-09-02T02:39:57.509Z,101315.59
2022-09-02T02:42:29.550Z,101299.66
2022-09-02T02:44:59.206Z,101310.97
2022-09-02T02:47:29.043Z,101303.91
2022-09-02T02:49:58.507Z,101302.28
2022-09-02T02:52:29.510Z,101296.41
2022-09-02T02:54:59.249Z,101296.75
2022-09-02T02:57:28.564Z,101291.91
2022-09-02T02:59:58.162Z,101285.56
2022-09-02T03:02:27.626Z,101284.41
2022-09-02T03:04:57.106Z,101282.78
2022-09-02T03:07:28.386Z,101280.03
2022-09-02T03:09:57.809Z,101280.38
2022-09-02T03:12:27.236Z,101282.00
2022-09-02T03:14:56.881Z,101279.13
2022-09-02T03:17:27.258Z,101263.00
2022-09-02T03:19:59.665Z,101263.47
2022-09-02T03:22:35.928Z,101260.00
2022-09-02T03:25:08.366Z,101255.41
2022-09-02T03:27:39.863Z,101207.88
2022-09-02T03:30:12.811Z,101237.22
2022-09-02T03:32:43.209Z,101211.00
2022-09-02T03:35:19.259Z,101228.47
2022-09-02T03:37:51.903Z,101224.31
2022-09-02T03:40:24.515Z,101215.50
2022-09-02T03:43:00.139Z,101214.22
2022-09-02T03:45:32.141Z,101232.84
2022-09-02T03:48:06.703Z,101230.50
2022-09-02T03:50:44.274Z,101229.63
2022-09-02T03:53:20.543Z,101223.63
2022-09-02T03:55:58.729Z,101218.78
2022-09-02T03:58:30.133Z,101225.94
2022-09-02T04:01:02.441Z,101198.66
2022-09-02T04:03:33.417Z,101222.00
2022-09-02T04:06:04.214Z,101208.88
2022-09-02T04:08:35.368Z,101221.31
2022-09-02T04:11:09.752Z,101215.78
2022-09-02T04:13:39.943Z,101221.31
2022-09-02T04:16:11.830Z,101210.03
2022-09-02T04:18:41.570Z,101207.06
2022-09-02T04:21:13.958Z,101204.75
2022-09-02T04:23:45.335Z,101202.31
2022-09-02T04:26:18.688Z,101210.03
2022-09-02T04:28:48.791Z,101188.47
2022-09-02T04:31:22.577Z,101210.03
2022-09-02T04:33:53.354Z,101203.56
2022-09-02T04:36:24.299Z,101194.75
2022-09-02T04:38:59.970Z,101189.00
2022-09-02T04:41:34.723Z,101199.47
2022-09-02T04:44:08.312Z,101189.69
2022-09-02T04:46:41.742Z,101173.69
2022-09-02T04:49:16.009Z,101180.13
2022-09-02T04:51:46.987Z,101191.75
2022-09-02T04:54:18.492Z,101188.06
2022-09-02T04:56:51.018Z,101181.53
2022-09-02T04:59:22.079Z,101192.94
2022-09-02T05:02:05.230Z,101176.13
2022-09-02T05:04:34.708Z,101181.56
2022-09-02T05:07:04.940Z,101181.91
2022-09-02T05:09:42.129Z,101184.00
2022-09-02T05:12:11.977Z,101172.81
2022-09-02T05:14:54.702Z,101158.00
2022-09-02T05:17:26.959Z,101182.78
2022-09-02T05:19:57.148Z,101170.69
2022-09-02T05:22:29.389Z,101178.41
2022-09-02T05:25:02.792Z,101171.41
2022-09-02T05:27:33.285Z,101173.59
2022-09-02T05:30:03.573Z,101176.59
2022-09-02T05:32:37.708Z,101152.75
2022-09-02T05:35:09.195Z,101170.25
2022-09-02T05:37:39.179Z,101167.63
2022-09-02T05:40:14.753Z,101154.25
2022-09-02T05:42:45.844Z,101163.81
2022-09-02T05:45:19.019Z,101149.38
2022-09-02T05:47:49.614Z,101167.28
2022-09-02T05:50:20.678Z,101162.50
2022-09-02T05:52:52.664Z,101148.91
2022-09-02T05:55:25.040Z,101165.78
2022-09-02T05:57:54.410Z,101162.31
2022-09-02T06:00:25.884Z,101157.84
2022-09-02T06:03:01.578Z,101156.78
2022-09-02T06:05:38.389Z,101162.09
2022-09-02T06:08:21.149Z,101166.25
2022-09-02T06:10:52.863Z,101140.09
2022-09-02T06:13:24.981Z,101173.03
2022-09-02T06:15:57.976Z,101160.72
2022-09-02T06:18:32.288Z,101157.00
2022-09-02T06:21:02.069Z,101147.00
2022-09-02T06:23:39.297Z,101144.78
2022-09-02T06:26:14.418Z,101152.16
2022-09-02T06:28:43.942Z,101148.94
2022-09-02T06:31:16.812Z,101152.28
2022-09-02T06:33:48.478Z,101129.16
2022-09-02T06:36:21.947Z,101143.19
2022-09-02T06:39:00.206Z,101143.66
2022-09-02T06:41:34.627Z,101154.00
2022-09-02T06:44:10.786Z,101134.19
2022-09-02T06:46:44.689Z,101121.75
2022-09-02T06:49:17.364Z,101140.03
2022-09-02T06:51:51.706Z,101127.38
2022-09-02T06:54:24.064Z,101136.69
2022-09-02T06:57:00.603Z,101131.63
2022-09-02T06:59:30.060Z,101091.34
2022-09-02T07:02:00.924Z,101134.16
2022-09-02T07:04:48.199Z,101135.16
2022-09-02T07:07:21.941Z,101119.38
2022-09-02T07:09:57.103Z,101118.63
2022-09-02T07:12:27.995Z,101116.06
2022-09-02T07:15:09.063Z,101120.78
2022-09-02T07:17:43.061Z,101106.25
2022-09-02T07:20:28.283Z,101110.47
2022-09-02T07:23:01.890Z,101105.66
2022-09-02T07:25:34.176Z,101096.38
2022-09-02T07:28:05.730Z,101104.78
2022-09-02T07:30:39.676Z,101098.91
2022-09-02T07:33:14.811Z,101102.13
2022-09-02T07:35:47.127Z,101092.81
2022-09-02T07:38:19.285Z,101086.22
2022-09-02T07:40:50.873Z,101091.97
2022-09-02T07:43:29.803Z,101095.69
2022-09-02T07:46:01.008Z,101098.09
2022-09-02T07:48:32.403Z,101082.19
2022-09-02T07:51:03.932Z,101069.66
2022-09-02T07:53:34.019Z,101085.31
2022-09-02T07:56:04.443Z,101079.94
2022-09-02T07:58:36.193Z,101080.56
2022-09-02T08:01:06.909Z,101080.31
2022-09-02T08:03:39.743Z,101073.59
2022-09-02T08:06:11.356Z,101084.84
2022-09-02T08:08:41.265Z,101082.97
2022-09-02T08:11:11.298Z,101065.06
2022-09-02T08:13:42.069Z,101069.47
2022-09-02T08:16:11.875Z,101078.47
2022-09-02T08:18:41.088Z,101075.41
2022-09-02T08:21:10.675Z,101071.97
2022-09-02T08:23:40.882Z,101067.19
2022-09-02T08:26:11.320Z,101061.50
2022-09-02T08:28:41.939Z,101060.09
2022-09-02T08:31:11.135Z,101073.13
2022-09-02T08:33:40.306Z,101065.50
2022-09-02T08:36:12.094Z,101058.63
2022-09-02T08:38:41.308Z,101050.75
2022-09-02T08:41:21.518Z,101056.13
2022-09-02T08:43:55.481Z,101043.59
2022-09-02T08:46:28.891Z,101044.91
2022-09-02T08:49:01.899Z,101051.03
2022-09-02T08:51:37.661Z,101030.06
2022-09-02T08:54:15.143Z,101033.31
2022-09-02T08:56:44.440Z,101025.63
2022-09-02T08:59:15.919Z,101023.91
2022-09-02T09:01:52.231Z,100952.88
2022-09-02T09:04:38.501Z,101013.56
2022-09-02T09:07:21.692Z,101018.25
2022-09-02T09:10:10.557Z,101006.13
2022-09-02T09:13:08.574Z,101035.13
2022-09-02T09:15:48.637Z,101037.75
2022-09-02T09:18:22.209Z,101034.25
2022-09-02T09:20:51.394Z,101022.81
2022-09-02T09:23:33.979Z,101017.50
2022-09-02T09:26:10.608Z,101017.53
2022-09-02T09:28:42.536Z,101026.13
2022-09-02T09:31:18.130Z,101006.31
2022-09-02T09:33:59.341Z,101017.59
2022-09-02T09:36:53.628Z,101001.19
2022-09-02T09:39:30.104Z,100999.16
2022-09-02T09:42:01.842Z,101005.44
2022-09-02T09:44:48.326Z,100999.38
2022-09-02T09:47:22.981Z,100995.75
2022-09-02T09:49:54.878Z,100984.28
2022-09-02T09:52:26.896Z,100997.44
2022-09-02T09:55:24.705Z,100992.66
2022-09-02T09:58:08.398Z,100995.88
2022-09-02T10:00:39.154Z,100989.81
2022-09-02T10:03:10.014Z,100989.78
2022-09-02T10:05:41.290Z,100989.28
2022-09-02T10:08:22.769Z,100985.22
2022-09-02T10:11:01.566Z,100985.22
2022-09-02T10:13:33.433Z,100982.75
2022-09-02T10:16:16.503Z,100971.13
2022-09-02T10:18:54.801Z,100962.19
2022-09-02T10:21:45.107Z,100974.06
2022-09-02T10:24:43.890Z,100927.13
2022-09-02T10:27:18.238Z,100960.06
2022-09-02T10:30:00.195Z,100954.06
2022-09-02T10:33:02.413Z,100966.50
2022-09-02T10:35:43.657Z,100965.69
2022-09-02T10:38:37.263Z,100957.75
2022-09-02T10:41:24.550Z,100943.75
2022-09-02T10:44:36.788Z,100949.78
2022-09-02T10:47:16.229Z,100952.22
2022-09-02T10:50:11.750Z,100941.50
2022-09-02T10:53:09.795Z,100929.13
2022-09-02T10:55:58.689Z,100925.09
2022-09-02T10:58:40.667Z,100914.41
2022-09-02T11:01:14.711Z,100898.78
2022-09-02T11:04:03.642Z,100929.53
2022-09-02T11:06:58.809Z,100921.47
2022-09-02T11:09:37.097Z,100901.13
2022-09-02T11:12:15.245Z,100908.78
2022-09-02T11:15:00.342Z,100831.66
2022-09-02T11:17:38.191Z,100893.03
2022-09-02T11:20:17.494Z,100892.91
2022-09-02T11:22:56.653Z,100890.63
2022-09-02T11:25:34.050Z,100884.41
2022-09-02T11:28:23.255Z,100879.53
2022-09-02T11:31:01.364Z,100876.50
2022-09-02T11:33:39.767Z,100871.25
2022-09-02T11:36:09.401Z,100858.25
2022-09-02T11:38:45.271Z,100854.03
2022-09-02T11:41:35.782Z,100851.88
2022-09-02T11:44:31.498Z,100846.91
2022-09-02T11:47:45.535Z,100847.50
2022-09-02T11:50:39.459Z,100848.19
2022-09-02T11:53:22.929Z,100841.56
2022-09-02T11:55:56.512Z,100840.63
2022-09-02T11:58:39.210Z,100831.03
2022-09-02T12:01:28.931Z,100823.44
2022-09-02T12:07:48.349Z,100830.84
2022-09-02T12:11:02.238Z,100827.84
2022-09-02T12:13:41.225Z,100823.97
2022-09-02T12:16:41.487Z,100806.25
2022-09-02T12:19:42.147Z,100816.31
2022-09-02T12:22:38.778Z,100795.25
2022-09-02T12:25:48.382Z,100805.44
2022-09-02T12:28:27.448Z,100807.91
2022-09-02T12:31:43.116Z,100794.09
2022-09-02T12:34:57.049Z,100802.16
2022-09-02T12:37:57.116Z,100798.63
2022-09-02T12:40:38.808Z,100796.69
2022-09-02T12:43:27.707Z,100785.56
2022-09-02T12:46:13.278Z,100794.78
2022-09-02T12:49:11.952Z,100796.41
2022-09-02T12:51:57.173Z,100772.09
2022-09-02T12:54:44.555Z,100775.69
2022-09-02T12:57:16.364Z,100738.50
2022-09-02T12:59:48.096Z,100747.25
2022-09-02T13:02:57.424Z,100781.09
2022-09-02T13:05:38.416Z,100769.91
2022-09-02T13:08:44.359Z,100775.44
2022-09-02T13:11:49.678Z,100767.41
2022-09-02T13:14:51.052Z,100761.78
2022-09-02T13:17:45.886Z,100753.66
2022-09-02T13:21:06.210Z,100743.53
2022-09-02T13:24:40.833Z,100753.78
2022-09-02T13:27:41.353Z,100735.38
2022-09-02T13:30:20.041Z,100740.22
2022-09-02T13:33:01.077Z,100732.72
2022-09-02T13:35:31.225Z,100732.06
2022-09-02T13:38:06.333Z,100724.88
2022-09-02T13:40:41.193Z,100720.94
2022-09-02T13:43:20.823Z,100719.47
2022-09-02T13:45:51.814Z,100719.59
2022-09-02T13:48:24.746Z,100712.13
2022-09-02T13:50:57.243Z,100710.19
2022-09-02T13:53:53.894Z,100701.84
2022-09-02T13:56:25.252Z,100700.72
2022-09-02T13:58:57.171Z,100700.72
2022-09-02T14:01:30.598Z,100679.97
2022-09-02T14:06:42.511Z,100695.88
2022-09-02T14:09:22.347Z,100687.94
2022-09-02T14:11:53.262Z,100683.88
2022-09-02T14:14:26.067Z,100686.31
2022-09-02T14:17:23.661Z,100675.16
2022-09-02T14:19:53.968Z,100677.56
2022-09-02T14:22:29.957Z,100667.59
2022-09-02T14:25:00.763Z,100658.00
2022-09-02T14:27:30.110Z,100653.22
2022-09-02T14:29:59.797Z,100645.66
2022-09-02T14:32:30.240Z,100647.28
2022-09-02T14:35:22.085Z,100640.94
2022-09-02T14:37:59.288Z,100649.72
2022-09-02T14:40:39.463Z,100648.06
2022-09-02T14:43:14.796Z,100652.03
2022-09-02T14:45:48.870Z,100639.28
2022-09-02T14:48:23.674Z,100628.09
2022-09-02T14:51:02.832Z,100618.13
2022-09-02T14:53:33.179Z,100632.03
2022-09-02T14:56:04.288Z,100608.88
2022-09-02T14:58:33.526Z,100609.69
2022-09-02T15:01:04.738Z,100605.75
2022-09-02T15:03:39.406Z,100617.75
2022-09-02T15:06:13.149Z,100608.22
2022-09-02T15:08:44.606Z,100600.25
2022-09-02T15:11:20.362Z,100597.88
2022-09-02T15:13:49.623Z,100589.09
2022-09-02T15:16:18.919Z,100587.47
2022-09-02T15:18:48.138Z,100545.31
2022-09-02T15:21:18.163Z,100564.38
2022-09-02T15:23:51.057Z,100573.16
2022-09-02T15:26:22.110Z,100550.44
2022-09-02T15:28:52.093Z,100546.44
2022-09-02T15:31:21.814Z,100544.06
2022-09-02T15:33:52.522Z,100554.84
2022-09-02T15:36:23.633Z,100551.63
2022-09-02T15:38:52.820Z,100538.50
2022-09-02T15:41:27.230Z,100505.47
2022-09-02T15:43:56.797Z,100525.41
2022-09-02T15:46:28.869Z,100529.34
2022-09-02T15:49:04.941Z,100533.75
2022-09-02T15:51:35.381Z,100534.94
2022-09-02T15:54:09.195Z,100527.34
2022-09-02T15:56:42.376Z,100523.75
2022-09-02T15:59:14.734Z,100513.41
2022-09-02T16:01:46.639Z,100503.03
2022-09-02T16:04:17.015Z,100503.03
2022-09-02T16:06:49.272Z,100505.84
2022-09-02T16:09:19.805Z,100497.88
2022-09-02T16:11:56.254Z,100487.94
2022-09-02T16:14:26.577Z,100489.16
2022-09-02T16:16:57.572Z,100464.47
2022-09-02T16:19:30.344Z,100476.81
2022-09-02T16:22:01.923Z,100472.44
2022-09-02T16:24:31.711Z,100469.22
2022-09-02T16:27:03.295Z,100445.75
2022-09-02T16:29:33.115Z,100456.50
2022-09-02T16:32:23.718Z,100464.47
2022-09-02T16:34:53.487Z,100436.22
2022-09-02T16:37:22.847Z,100407.16
2022-09-02T16:39:53.381Z,100451.75
2022-09-02T16:42:24.716Z,100444.16
2022-09-02T16:44:56.438Z,100443.38
2022-09-02T16:47:25.604Z,100440.59
2022-09-02T16:49:55.209Z,100415.91
2022-09-02T16:52:24.454Z,100430.25
2022-09-02T16:54:53.762Z,100415.50
2022-09-02T16:57:25.376Z,100411.53
2022-09-02T16:59:54.774Z,100429.44
2022-09-02T17:02:28.318Z,100427.81
2022-09-02T17:04:58.041Z,100422.66
2022-09-02T17:07:27.300Z,100416.69
2022-09-02T17:09:56.411Z,100415.50
2022-09-02T17:12:27.040Z,100401.97
2022-09-02T17:14:56.406Z,100409.09
2022-09-02T17:17:25.592Z,100383.66
2022-09-02T17:19:54.847Z,100400.38
2022-09-02T17:22:23.970Z,100383.63
2022-09-02T17:24:57.082Z,100384.84
2022-09-02T17:27:28.366Z,100390.81
2022-09-02T17:30:00.096Z,100371.69
2022-09-02T17:32:29.389Z,100378.09
2022-09-02T17:34:58.798Z,100368.53
2022-09-02T17:37:28.047Z,100370.91
2022-09-02T17:39:57.296Z,100353.41
2022-09-02T17:42:26.871Z,100360.19
2022-09-02T17:44:55.985Z,100351.44
2022-09-02T17:47:26.076Z,100345.47
2022-09-02T17:49:55.226Z,100335.09
2022-09-02T17:52:25.951Z,100339.06
2022-09-02T17:54:58.086Z,100339.06
2022-09-02T17:57:42.746Z,100291.00
2022-09-02T18:00:16.192Z,100315.63
2022-09-02T18:03:31.270Z,100307.28
2022-09-02T18:06:11.801Z,100326.78
2022-09-02T18:08:51.494Z,100318.81
2022-09-02T18:11:22.500Z,100316.84
2022-09-02T18:14:05.754Z,100320.81
2022-09-02T18:16:40.074Z,100314.84
2022-09-02T18:19:20.372Z,100310.06
2022-09-02T18:22:10.416Z,100308.88
2022-09-02T18:25:04.288Z,100316.03
2022-09-02T18:27:52.626Z,100317.22
2022-09-02T18:30:27.551Z,100312.47
2022-09-02T18:33:25.194Z,100305.28
2022-09-02T18:36:07.429Z,100268.28
2022-09-02T18:38:47.906Z,100298.53
2022-09-02T18:41:39.338Z,100304.47
2022-09-02T18:44:23.528Z,100298.88
2022-09-02T18:47:03.561Z,100280.97
2022-09-02T18:49:37.822Z,100296.09
2022-09-02T18:52:11.591Z,100289.72
2022-09-02T18:54:47.469Z,100295.25
2022-09-02T18:57:16.956Z,100272.59
2022-09-02T18:59:55.937Z,100256.69
2022-09-02T19:02:35.808Z,100282.50
2022-09-02T19:05:09.850Z,100289.66
2022-09-02T19:07:57.784Z,100286.47
2022-09-02T19:10:26.988Z,100292.41
2022-09-02T19:12:58.835Z,100293.63
2022-09-02T19:15:28.294Z,100294.41
2022-09-02T19:17:59.913Z,100286.47
2022-09-02T19:20:29.290Z,100284.84
2022-09-02T19:22:59.558Z,100282.06
2022-09-02T19:25:31.709Z,100286.84
2022-09-02T19:28:03.342Z,100287.63
2022-09-02T19:30:37.479Z,100269.72
2022-09-02T19:33:13.950Z,100283.25
2022-09-02T19:35:49.127Z,100284.84
2022-09-02T19:38:20.977Z,100284.06
2022-09-02T19:40:50.511Z,100285.28
2022-09-02T19:43:20.427Z,100282.50
2022-09-02T19:45:51.418Z,100286.84
2022-09-02T19:48:22.910Z,100280.44
2022-09-02T19:50:52.350Z,100268.53
2022-09-02T19:53:27.972Z,100269.69
2022-09-02T19:55:57.304Z,100282.03
2022-09-02T19:58:29.285Z,100279.66
2022-09-02T20:00:59.398Z,100272.47
2022-09-02T20:03:30.482Z,100283.25
2022-09-02T20:06:01.237Z,100258.59
2022-09-02T20:08:34.585Z,100278.47
2022-09-02T20:11:06.805Z,100275.69
2022-09-02T20:13:41.442Z,100278.84
2022-09-02T20:16:21.943Z,100270.50
2022-09-02T20:18:56.949Z,100269.69
2022-09-02T20:21:29.386Z,100248.16
2022-09-02T20:24:04.825Z,100269.63
2022-09-02T20:26:56.620Z,100260.91
2022-09-02T20:29:43.337Z,100264.47
2022-09-02T20:32:26.875Z,100267.66
2022-09-02T20:35:12.670Z,100262.84
2022-09-02T20:37:53.122Z,100264.03
2022-09-02T20:40:46.021Z,100244.97
2022-09-02T20:43:41.458Z,100262.81
2022-09-02T20:46:29.237Z,100237.34
2022-09-02T20:49:16.815Z,100252.81
2022-09-02T20:52:01.011Z,100252.44
2022-09-02T20:54:47.722Z,100260.34
2022-09-02T20:57:35.488Z,100254.75
2022-09-02T21:00:10.615Z,100255.94
2022-09-02T21:02:50.040Z,100251.19
2022-09-02T21:05:24.341Z,100251.94
2022-09-02T21:08:04.238Z,100227.25
2022-09-02T21:10:39.570Z,100200.25
2022-09-02T21:13:16.753Z,100246.38
2022-09-02T21:15:50.518Z,100236.06
2022-09-02T21:18:27.819Z,100197.06
2022-09-02T21:21:06.076Z,100229.72
2022-09-02T21:23:42.996Z,100213.03
2022-09-02T21:26:20.830Z,100178.34
2022-09-02T21:28:58.186Z,100223.78
2022-09-02T21:31:34.416Z,100212.28
2022-09-02T21:34:12.392Z,100211.47
2022-09-02T21:36:41.682Z,100216.25
2022-09-02T21:39:19.286Z,100209.06
2022-09-02T21:41:58.944Z,100211.84
2022-09-02T21:44:43.614Z,100217.00
2022-09-02T21:47:23.400Z,100219.78
2022-09-02T21:50:11.142Z,100199.09
2022-09-02T21:52:59.516Z,100208.63
2022-09-02T21:55:49.752Z,100211.38
2022-09-02T21:58:50.638Z,100222.50
2022-09-02T22:01:35.453Z,100211.78
2022-09-02T22:04:12.392Z,100216.16
2022-09-02T22:06:46.199Z,100187.44
2022-09-02T22:09:21.314Z,100215.31
2022-09-02T22:12:00.131Z,100211.75
2022-09-02T22:14:38.307Z,100195.84
2022-09-02T22:17:17.310Z,100191.53
2022-09-02T22:19:51.134Z,100183.13
2022-09-02T22:22:24.602Z,100185.16
2022-09-02T22:24:55.228Z,100183.94
2022-09-02T22:27:34.306Z,100184.75
2022-09-02T22:30:09.039Z,100176.78
2022-09-02T22:32:42.021Z,100173.19
2022-09-02T22:35:25.176Z,100157.25
2022-09-02T22:38:02.534Z,100178.72
2022-09-02T22:40:37.519Z,100188.63
2022-09-02T22:43:15.259Z,100179.50
2022-09-02T22:46:10.310Z,100166.81
2022-09-02T22:49:01.046Z,100179.94
2022-09-02T22:52:03.394Z,100163.59
2022-09-02T22:54:32.639Z,100163.59
2022-09-02T22:57:08.846Z,100181.50
2022-09-02T22:59:57.257Z,100177.13
2022-09-02T23:02:37.617Z,100178.72
2022-09-02T23:05:45.514Z,100177.13
2022-09-02T23:08:17.671Z,100166.38
2022-09-02T23:10:52.093Z,100170.34
2022-09-02T23:13:37.460Z,100165.19
2022-09-02T23:16:20.145Z,100156.81
2022-09-02T23:19:01.035Z,100167.50
2022-09-02T23:21:41.157Z,100169.13
2022-09-02T23:24:23.629Z,100167.50
2022-09-02T23:27:03.854Z,100161.91
2022-09-02T23:29:35.658Z,100157.94
2022-09-02T23:32:43.830Z,100149.50
2022-09-02T23:35:21.481Z,100146.34
2022-09-02T23:38:11.875Z,100143.97
2022-09-02T23:40:44.522Z,100135.63
2022-09-02T23:43:16.726Z,100147.56
2022-09-02T23:45:47.415Z,100145.94
2022-09-02T23:48:39.598Z,100145.09
2022-09-02T23:51:19.762Z,100137.59
2022-09-02T23:54:19.469Z,100144.75
2022-09-02T23:57:17.266Z,100127.31
